LLSR weather

Soroka Medical Center
Beersheba, Southern District, Israel

Public forecast

Using degrees Celsius for public forecast. Weather courtesy of forecast.io.

Closest aviation weather report (METAR) to Soroka Medical Center

Closest report is Ben Gurion International Airport, 45.4 nm (84.1 km) N. Retrieved 2019/12/15 10:20 UTC (0 seconds ago):

LLBG 151020Z VRB03KT CAVOK 19/03 Q1014 NOSIG RMK BKN100

Closest aviation forecast (TAF) to Soroka Medical Center

Forecast is more than 12 hours old.

Closest forecast is El Gora Airport, 36.3 nm (67.2 km) WSW. Retrieved 2019/12/10 12:00 UTC (5 days ago):

TAF HEGR 101100Z 1012/1118 21008KT 9999 SCT025 TEMPO 1012/1016 4000 SHRA FEWCB020 BKN030